TAF LESA
LESA 080200Z 0803/0903 27015KT 9999 BKN018 BKN024 TX07/0814Z TN01/0806Z PROB40 TEMPO 0803/0811 27018G28KT BKN014 PROB40 TEMPO 0809/0818 3000 RASN BKN005 PROB40 TEMPO 0811/0818 28020G35KT BECMG 0900/0902 OVC006 TEMPO 0901/0903 OVC003=
METAR LESA
LESA 080330Z AUTO 28017G28KT 9000 BKN017 OVC023 05/03 Q1013=
LESA 080300Z AUTO 26015KT 9000 BKN014 OVC023 05/03 Q1013=
LESA 080230Z AUTO 26018KT 8000 BKN017 OVC023 05/03 Q1012=
LESA 080200Z AUTO 26019G29KT 230V290 9000 BKN018 OVC023 05/03 Q1012=
LESA 080130Z AUTO 26015KT 230V290 9000 BKN022 BKN028 05/03 Q1012=
WC LESA
WS LESA
WV LESA